Lynchburg, Ohio
Current Conditions -  °F | °C
As of 2:54 AM on Tuesday 21 Oct 2014 (Local Time) from KILN Reporting Station
Haze Haze  
Wind Chill: 52°   Ceiling: 5000
Heat Index: 52°   Visibility: 6mi
Dew Point: 49°   Wind: 6mph
Humidity: 89%   Direction: 330°NNW
Pressure: 29.91"   Gusts: NA
Location:  39.24°N, 83.79°W
Report Text: KILN 210654Z AUTO 33005KT 6SM BR BKN050 BKN070 OVC090 11/09 A2991 RMK AO2 RAB02E11 SLP132 P0000 T01110094
Loading
Personal Weather Stations






























Interactive Weather Map
Tropical Storm Tracking
New forecast layout! Learn more

10-Day Weather Forecast

Advertisements
Track Severe Weather on mobile